Time;durP1;ratioP1;P1;durP2;ratioP2;P2;SDS_P1;SDS_P2;PMS_P1;PMS_P2;Temp;Humidity;BMP_temperature;BMP_pressure;BME280_temperature;BME280_humidity;BME280_pressure;Samples;Min_cycle;Max_cycle;Signal;HPM_P1;HPM_P2
2021/09/19 00:01:13;;;;;;;;;7.00;7.00;;;;;21.38;61.10;100844.59;5021848;28;45306;-77
2021/09/19 00:03:39;;;;;;;;;8.00;6.25;;;;;21.36;60.70;100841.97;5034783;28;45314;-78
2021/09/19 00:06:05;;;;;;;;;5.00;5.00;;;;;21.36;61.22;100843.69;5030332;28;47196;-78
2021/09/19 00:08:32;;;;;;;;;6.50;6.50;;;;;21.35;60.89;100848.09;5015340;28;45338;-78
2021/09/19 00:10:58;;;;;;;;;12.00;7.25;;;;;21.40;61.33;100854.25;5015315;28;45449;-77
2021/09/19 00:13:23;;;;;;;;;6.75;6.00;;;;;21.39;61.04;100844.56;5015544;28;45247;-78
2021/09/19 00:15:49;;;;;;;;;5.75;5.00;;;;;21.39;61.25;100843.72;5014880;28;45346;-78
2021/09/19 00:18:17;;;;;;;;;8.25;7.00;;;;;21.40;61.26;100840.22;5014071;28;45324;-78
2021/09/19 00:20:43;;;;;;;;;6.75;6.75;;;;;21.39;60.69;100843.72;5011666;28;45363;-77
2021/09/19 00:23:09;;;;;;;;;6.50;6.50;;;;;21.40;60.88;100834.94;4999409;28;45328;-78
2021/09/19 00:25:35;;;;;;;;;6.00;5.50;;;;;21.39;61.08;100830.53;4998428;28;46432;-78
2021/09/19 00:28:01;;;;;;;;;7.00;6.25;;;;;21.38;61.19;100824.38;5013750;28;45311;-77
2021/09/19 00:30:27;;;;;;;;;6.25;5.25;;;;;21.38;61.40;100823.53;4998632;28;45371;-77
2021/09/19 00:32:53;;;;;;;;;5.50;5.50;;;;;21.38;60.73;100819.13;4998481;28;45533;-77
2021/09/19 00:35:18;;;;;;;;;6.00;3.75;;;;;21.40;61.03;100819.13;4998205;28;45336;-77
2021/09/19 00:37:44;;;;;;;;;5.25;5.00;;;;;21.40;61.25;100821.78;4998078;28;45257;-77
2021/09/19 00:40:10;;;;;;;;;6.00;5.00;;;;;21.41;61.31;100820.91;4997292;28;45333;-77
2021/09/19 00:42:36;;;;;;;;;8.00;7.50;;;;;21.38;60.97;100810.34;4999032;28;45464;-78
2021/09/19 00:45:32;;;;;;;;;6.50;6.50;;;;;21.41;61.09;100813.84;4998393;28;45389;-78
2021/09/19 00:47:57;;;;;;;;;6.00;5.25;;;;;21.40;61.08;100809.47;4996814;28;45478;-77
2021/09/19 00:50:25;;;;;;;;;7.00;7.00;;;;;21.34;61.27;100804.22;5000086;28;45383;-77
2021/09/19 00:52:51;;;;;;;;;7.50;6.50;;;;;21.29;60.52;100798.94;5014636;28;45537;-78
2021/09/19 00:55:19;;;;;;;;;8.00;7.00;;;;;21.29;61.10;100803.31;5017960;28;46021;-77
2021/09/19 00:57:47;;;;;;;;;7.75;7.50;;;;;21.25;61.48;100812.97;5017715;28;45681;-77
2021/09/19 01:00:18;;;;;;;;;7.50;7.00;;;;;21.21;61.37;100810.34;5018058;28;45267;-77
2021/09/19 01:02:44;;;;;;;;;7.50;7.50;;;;;21.17;61.49;100809.47;5017919;28;45446;-77
2021/09/19 01:05:12;;;;;;;;;6.75;6.75;;;;;21.14;61.90;100806.81;5018045;28;46066;-78
2021/09/19 01:07:40;;;;;;;;;7.50;7.25;;;;;21.14;61.61;100805.09;5018035;28;45330;-77
2021/09/19 01:10:06;;;;;;;;;8.00;7.00;;;;;21.10;61.47;100805.09;5016079;28;45537;-78
2021/09/19 01:12:32;;;;;;;;;7.75;7.75;;;;;21.06;61.34;100796.28;4998410;28;45364;-78
2021/09/19 01:15:00;;;;;;;;;9.25;7.75;;;;;21.07;62.01;100802.44;4997715;28;45628;-77
2021/09/19 01:17:26;;;;;;;;;8.25;7.75;;;;;21.08;62.35;100801.56;4997919;28;45279;-77
2021/09/19 01:19:55;;;;;;;;;6.75;6.75;;;;;21.03;61.89;100794.53;4997478;28;45404;-78
2021/09/19 01:22:33;;;;;;;;;9.00;5.00;;;;;21.00;62.36;100804.19;4998189;28;45395;-77
2021/09/19 01:25:04;;;;;;;;;8.25;8.25;;;;;20.97;62.16;100798.91;4997465;28;46090;-77
2021/09/19 01:27:29;;;;;;;;;6.25;6.25;;;;;20.96;62.55;100805.94;4997615;28;45807;-77
2021/09/19 01:29:55;;;;;;;;;6.25;6.25;;;;;20.97;62.24;100804.16;4997116;28;45549;-77
2021/09/19 01:32:23;;;;;;;;;7.75;7.50;;;;;20.94;62.97;100796.28;4998875;28;45622;-77
2021/09/19 01:34:50;;;;;;;;;7.25;7.00;;;;;20.92;62.72;100796.25;5000214;28;46355;-77
2021/09/19 01:37:16;;;;;;;;;5.50;5.00;;;;;20.90;62.56;100798.00;5001594;28;45206;-77
2021/09/19 01:39:42;;;;;;;;;6.25;6.25;;;;;20.90;62.61;100799.78;5000345;28;45395;-77
2021/09/19 01:42:07;;;;;;;;;11.75;8.00;;;;;20.84;63.00;100783.09;4998044;28;45513;-77
2021/09/19 01:44:33;;;;;;;;;6.75;5.75;;;;;20.84;62.94;100787.47;4997505;28;45799;-77
2021/09/19 01:47:00;;;;;;;;;7.00;6.75;;;;;20.80;63.30;100789.22;4997194;28;45810;-77
2021/09/19 01:49:26;;;;;;;;;7.50;5.25;;;;;20.76;64.04;100789.22;4997403;28;45477;-77
2021/09/19 01:51:51;;;;;;;;;10.00;10.00;;;;;20.71;63.75;100784.78;4996002;28;45622;-77
2021/09/19 01:54:17;;;;;;;;;10.25;7.75;;;;;20.68;63.97;100794.44;5016406;28;46105;-77
2021/09/19 01:56:43;;;;;;;;;8.00;8.00;;;;;20.62;63.80;100790.03;5016752;28;45248;-77
2021/09/19 01:59:08;;;;;;;;;9.50;8.00;;;;;20.61;64.49;100788.28;5017440;28;45330;-76
2021/09/19 02:01:34;;;;;;;;;8.25;8.25;;;;;20.54;64.66;100781.25;5001867;28;45229;-77
2021/09/19 02:04:00;;;;;;;;;12.75;9.25;;;;;20.55;64.16;100785.63;5018870;28;46721;-76
2021/09/19 02:06:26;;;;;;;;;11.00;9.75;;;;;20.50;64.81;100783.00;5016977;28;45393;-78
2021/09/19 02:08:52;;;;;;;;;9.75;9.50;;;;;20.53;64.59;100787.38;5016729;28;45382;-78
2021/09/19 02:11:19;;;;;;;;;9.00;7.25;;;;;20.58;64.80;100796.13;5016953;28;45365;-77
2021/09/19 02:13:46;;;;;;;;;13.75;11.00;;;;;20.59;64.88;100791.78;5016562;28;45421;-78
2021/09/19 02:16:13;;;;;;;;;9.50;7.25;;;;;20.56;65.06;100790.88;5016635;28;45713;-77
2021/09/19 02:18:38;;;;;;;;;10.00;9.00;;;;;20.57;64.69;100790.00;5017340;28;45330;-78
2021/09/19 02:21:06;;;;;;;;;11.50;11.50;;;;;20.59;65.05;100792.63;5018539;28;45226;-77
2021/09/19 02:23:32;;;;;;;;;8.75;7.75;;;;;20.53;64.95;100785.59;5019290;28;46246;-78
2021/09/19 02:25:58;;;;;;;;;12.25;10.25;;;;;20.50;65.46;100783.00;5019279;28;45300;-78
2021/09/19 02:28:23;;;;;;;;;9.75;9.50;;;;;20.43;64.77;100773.31;5020082;28;45341;-78
2021/09/19 02:30:49;;;;;;;;;10.50;10.25;;;;;20.47;64.97;100777.72;5018379;28;45293;-77
2021/09/19 02:33:16;;;;;;;;;12.25;11.50;;;;;20.43;64.97;100768.03;5017184;28;45522;-77
2021/09/19 02:35:42;;;;;;;;;14.00;10.00;;;;;20.50;65.13;100775.09;5017173;28;45760;-77
2021/09/19 02:38:07;;;;;;;;;14.50;11.00;;;;;20.47;65.03;100763.66;5016949;28;45349;-77
2021/09/19 02:40:33;;;;;;;;;12.75;11.00;;;;;20.48;65.37;100765.44;5016667;28;45642;-77
2021/09/19 02:42:59;;;;;;;;;11.75;11.25;;;;;20.50;65.38;100771.56;5014667;28;45551;-77
2021/09/19 02:45:25;;;;;;;;;10.75;10.00;;;;;20.48;65.56;100768.06;5016322;28;45462;-78
2021/09/19 02:47:51;;;;;;;;;10.50;10.25;;;;;20.35;65.72;100754.91;5016357;28;45276;-77
2021/09/19 02:50:20;;;;;;;;;12.50;11.00;;;;;20.42;65.90;100767.19;5010173;28;45645;-77
2021/09/19 02:52:47;;;;;;;;;13.75;12.75;;;;;20.37;65.56;100762.78;5011506;28;47093;-77
2021/09/19 02:55:13;;;;;;;;;13.50;12.50;;;;;20.37;65.82;100754.88;4996275;28;45685;-77
2021/09/19 02:57:39;;;;;;;;;11.50;11.50;;;;;20.33;66.12;100750.47;4996964;28;45299;-76
2021/09/19 03:00:08;;;;;;;;;11.00;11.00;;;;;20.36;65.96;100758.38;4996486;28;45194;-77
2021/09/19 03:02:33;;;;;;;;;13.25;11.00;;;;;20.33;65.79;100759.25;4996191;28;46059;-77
2021/09/19 03:04:59;;;;;;;;;14.25;12.50;;;;;20.32;65.79;100756.59;4996037;28;45300;-77
2021/09/19 03:07:25;;;;;;;;;12.75;12.25;;;;;20.25;65.78;100743.44;4995141;28;45385;-79
2021/09/19 03:09:50;;;;;;;;;12.00;12.00;;;;;20.32;66.37;100748.72;4998802;28;45801;-79
2021/09/19 03:12:16;;;;;;;;;11.25;11.00;;;;;20.27;65.67;100743.44;4999583;28;45903;-79
2021/09/19 03:14:42;;;;;;;;;10.00;9.25;;;;;20.23;66.23;100732.03;4998440;28;45276;-78
2021/09/19 03:17:07;;;;;;;;;10.00;10.00;;;;;20.25;66.05;100742.56;5001225;28;45420;-79
2021/09/19 03:19:33;;;;;;;;;15.25;14.25;;;;;20.28;66.50;100739.09;5015902;28;45228;-79
2021/09/19 03:21:58;;;;;;;;;10.75;10.75;;;;;20.21;66.10;100730.28;5014345;28;46002;-79
2021/09/19 03:24:24;;;;;;;;;16.75;10.25;;;;;20.24;66.49;100738.19;5015846;28;45173;-79
2021/09/19 03:26:50;;;;;;;;;14.50;12.25;;;;;20.20;66.30;100734.66;5015574;28;45320;-78
2021/09/19 03:29:15;;;;;;;;;13.75;13.75;;;;;20.25;66.07;100753.97;5015958;28;45485;-79
2021/09/19 03:31:41;;;;;;;;;16.25;15.00;;;;;20.28;66.72;100757.50;5015702;28;45423;-78
2021/09/19 03:34:06;;;;;;;;;15.25;14.00;;;;;20.29;66.28;100756.63;4998257;28;45507;-78
2021/09/19 03:36:32;;;;;;;;;11.75;10.75;;;;;20.28;66.62;100753.09;5015858;28;45382;-79
2021/09/19 03:38:58;;;;;;;;;13.75;13.75;;;;;20.26;65.91;100753.09;5015739;28;45372;-79
2021/09/19 03:41:23;;;;;;;;;14.00;12.75;;;;;20.28;66.63;100757.50;5000272;28;45469;-78
2021/09/19 03:43:50;;;;;;;;;13.75;13.25;;;;;20.26;66.54;100752.19;5012029;28;45476;-78
2021/09/19 03:46:15;;;;;;;;;15.75;14.50;;;;;20.30;66.22;100753.97;5015814;28;45414;-78
2021/09/19 03:48:41;;;;;;;;;10.75;8.25;;;;;20.30;66.12;100753.13;5015802;28;45460;-78
2021/09/19 03:51:07;;;;;;;;;12.75;12.75;;;;;20.25;65.77;100748.72;5013830;28;47844;-79
2021/09/19 03:53:32;;;;;;;;;17.25;12.25;;;;;20.24;65.90;100744.31;5016602;28;45339;-79
2021/09/19 03:55:58;;;;;;;;;13.00;12.50;;;;;20.23;65.71;100753.06;5019043;28;45253;-79
2021/09/19 03:58:23;;;;;;;;;12.00;10.75;;;;;20.18;64.88;100749.56;5018006;28;45375;-77
2021/09/19 04:00:49;;;;;;;;;12.25;11.25;;;;;20.17;64.92;100753.06;5017732;28;46226;-77
2021/09/19 04:03:15;;;;;;;;;13.50;11.25;;;;;20.15;64.60;100749.53;5006736;28;45349;-77
2021/09/19 04:05:40;;;;;;;;;10.25;10.25;;;;;20.11;63.79;100745.13;5018160;28;45467;-77
2021/09/19 04:08:06;;;;;;;;;14.25;12.50;;;;;20.15;64.09;100752.19;5018762;28;45205;-77
2021/09/19 04:10:32;;;;;;;;;14.00;11.50;;;;;20.15;63.66;100756.53;5018663;28;45426;-78
2021/09/19 04:12:58;;;;;;;;;12.50;12.50;;;;;20.15;63.04;100746.03;5018190;28;45863;-77
2021/09/19 04:15:24;;;;;;;;;11.00;10.25;;;;;20.15;62.49;100752.19;5017597;28;45522;-77
2021/09/19 04:17:50;;;;;;;;;11.50;10.25;;;;;20.17;62.89;100746.91;5018847;28;45324;-77
2021/09/19 04:20:16;;;;;;;;;10.25;9.00;;;;;20.17;62.36;100744.28;5018294;28;45558;-77
2021/09/19 04:22:42;;;;;;;;;11.50;9.50;;;;;20.15;61.61;100743.41;5018048;28;45357;-76
2021/09/19 04:25:09;;;;;;;;;15.50;13.00;;;;;20.13;60.86;100742.53;5018817;28;45311;-77
2021/09/19 04:27:36;;;;;;;;;10.50;10.25;;;;;20.13;61.15;100740.78;5018696;28;45224;-77
2021/09/19 04:30:03;;;;;;;;;8.50;8.00;;;;;20.10;60.92;100741.66;5013700;28;45888;-77
2021/09/19 04:32:29;;;;;;;;;9.50;8.75;;;;;20.09;60.37;100755.66;4998452;28;45354;-77
2021/09/19 04:34:55;;;;;;;;;8.75;8.75;;;;;20.09;60.45;100753.03;4998118;28;45378;-77
2021/09/19 04:37:21;;;;;;;;;10.00;10.00;;;;;20.05;59.89;100761.75;4998788;28;45652;-77
2021/09/19 04:39:46;;;;;;;;;14.00;13.00;;;;;19.99;60.04;100756.47;5001824;28;45474;-76
2021/09/19 04:42:13;;;;;;;;;15.00;11.25;;;;;19.97;60.12;100758.22;5000954;28;45277;-78
2021/09/19 04:44:40;;;;;;;;;11.00;11.00;;;;;19.98;59.82;100759.13;5013868;28;45322;-77
2021/09/19 04:47:06;;;;;;;;;10.50;9.25;;;;;19.97;59.81;100763.47;4998857;28;45570;-78
2021/09/19 04:49:32;;;;;;;;;13.75;12.50;;;;;19.93;59.98;100764.31;4998198;28;45359;-77
2021/09/19 04:51:59;;;;;;;;;10.00;10.00;;;;;19.95;59.60;100760.84;4997891;28;45677;-78
2021/09/19 04:54:25;;;;;;;;;11.25;9.50;;;;;19.95;59.97;100771.38;4998069;28;45425;-78
2021/09/19 04:56:50;;;;;;;;;12.75;10.25;;;;;19.88;59.30;100760.81;4998249;28;45324;-78
2021/09/19 04:59:16;;;;;;;;;10.00;9.00;;;;;19.81;59.71;100765.09;5000773;28;46136;-78
2021/09/19 05:01:41;;;;;;;;;10.50;9.50;;;;;19.76;59.86;100777.34;5016686;28;45335;-77
2021/09/19 05:04:07;;;;;;;;;13.25;11.50;;;;;19.76;59.37;100785.22;5017121;28;45364;-78
2021/09/19 05:06:33;;;;;;;;;10.25;10.25;;;;;19.70;59.21;100779.91;5015622;28;45577;-78
2021/09/19 05:08:58;;;;;;;;;13.25;12.25;;;;;19.63;59.90;100786.88;5016039;28;46267;-78
2021/09/19 05:11:24;;;;;;;;;13.00;12.25;;;;;19.60;59.73;100785.13;5016722;28;45231;-77
2021/09/19 05:13:51;;;;;;;;;10.25;9.75;;;;;19.57;59.94;100792.09;5016194;28;45874;-77
2021/09/19 05:16:17;;;;;;;;;13.50;13.25;;;;;19.50;60.07;100791.16;5020276;28;45617;-77
2021/09/19 05:18:43;;;;;;;;;15.00;14.25;;;;;19.52;60.11;100788.53;5025642;28;46195;-78
2021/09/19 05:21:09;;;;;;;;;14.50;12.75;;;;;19.53;59.82;100782.44;5022511;28;45492;-78
2021/09/19 05:23:35;;;;;;;;;11.75;9.75;;;;;19.50;60.27;100778.03;5017757;28;45327;-79
2021/09/19 05:26:01;;;;;;;;;14.00;10.50;;;;;19.49;60.10;100777.16;5020044;28;45391;-79
2021/09/19 05:28:27;;;;;;;;;9.75;9.00;;;;;19.47;59.78;100784.16;5019341;28;45250;-78
2021/09/19 05:30:53;;;;;;;;;12.00;11.50;;;;;19.50;60.44;100783.28;5014139;28;45359;-78
2021/09/19 05:33:19;;;;;;;;;12.50;9.75;;;;;19.48;59.80;100782.41;5023022;28;45441;-77
2021/09/19 05:35:45;;;;;;;;;12.00;11.25;;;;;19.49;59.87;100790.28;5026843;28;45566;-77
2021/09/19 05:38:11;;;;;;;;;12.00;12.00;;;;;19.45;59.69;100777.09;5025336;28;46269;-77
2021/09/19 05:40:37;;;;;;;;;8.00;8.00;;;;;19.44;59.97;100783.22;5022678;28;45687;-77
2021/09/19 05:43:04;;;;;;;;;12.00;11.50;;;;;19.45;59.91;100791.13;5016020;28;45524;-77
2021/09/19 05:45:31;;;;;;;;;11.00;11.00;;;;;19.40;60.01;100784.09;5014402;28;45457;-76
2021/09/19 05:47:57;;;;;;;;;10.25;10.25;;;;;19.41;60.32;100791.97;4996179;28;45462;-76
2021/09/19 05:50:24;;;;;;;;;13.75;13.75;;;;;19.46;60.06;100797.25;4996694;28;45853;-76
2021/09/19 05:52:49;;;;;;;;;11.75;10.25;;;;;19.42;59.70;100796.34;4997074;28;45335;-76
2021/09/19 05:55:15;;;;;;;;;11.75;10.25;;;;;19.42;59.78;100798.97;4997442;28;45363;-77
2021/09/19 05:57:41;;;;;;;;;10.00;10.00;;;;;19.38;59.79;100791.97;4996658;28;45376;-75
2021/09/19 06:00:08;;;;;;;;;9.00;9.00;;;;;19.34;59.63;100790.16;5007109;28;45312;-80
2021/09/19 06:02:34;;;;;;;;;13.50;10.50;;;;;19.39;59.59;100803.34;5017281;28;45505;-77
2021/09/19 06:05:00;;;;;;;;;14.00;13.50;;;;;19.37;59.60;100805.06;5016150;28;45519;-79
2021/09/19 06:07:25;;;;;;;;;12.25;12.25;;;;;19.31;59.53;100805.88;5016563;28;45965;-79
2021/09/19 06:09:51;;;;;;;;;12.00;11.75;;;;;19.36;60.14;100813.78;5020494;28;45588;-80
2021/09/19 06:12:18;;;;;;;;;12.75;12.75;;;;;19.24;59.39;100799.69;5023810;28;45308;-80
2021/09/19 06:14:44;;;;;;;;;14.75;14.00;;;;;19.40;59.52;100819.09;5020620;28;45433;-79
2021/09/19 06:17:10;;;;;;;;;13.25;11.50;;;;;19.34;59.68;100798.91;5015621;28;45367;-79
2021/09/19 06:19:36;;;;;;;;;15.00;14.00;;;;;19.50;59.67;100825.31;5016890;28;45410;-79
2021/09/19 06:22:02;;;;;;;;;14.25;11.75;;;;;19.51;59.15;100827.06;5015776;28;45295;-78
2021/09/19 06:24:29;;;;;;;;;11.75;11.50;;;;;19.48;58.92;100820.06;5016617;28;45535;-79
2021/09/19 06:26:56;;;;;;;;;13.75;13.00;;;;;19.47;58.57;100815.66;5016288;28;45353;-80
2021/09/19 06:29:22;;;;;;;;;12.75;12.25;;;;;19.56;59.24;100829.72;5013669;28;45804;-81
2021/09/19 06:31:48;;;;;;;;;11.75;11.75;;;;;19.54;58.32;100818.31;4995352;28;45310;-80
2021/09/19 06:34:13;;;;;;;;;9.50;9.50;;;;;19.61;58.63;100822.75;5000106;28;45385;-79
2021/09/19 06:36:39;;;;;;;;;17.75;13.50;;;;;19.58;58.11;100825.38;4997375;28;45172;-79
2021/09/19 06:39:05;;;;;;;;;14.50;13.75;;;;;19.57;58.65;100823.63;5012356;28;45245;-81
2021/09/19 06:41:30;;;;;;;;;16.50;13.00;;;;;19.59;58.60;100819.25;5016741;28;45387;-79
2021/09/19 06:43:56;;;;;;;;;16.75;14.25;;;;;19.56;57.73;100806.97;5016524;28;45293;-83
2021/09/19 06:46:23;;;;;;;;;12.50;10.75;;;;;19.63;57.98;100815.75;5014696;28;47818;-78
2021/09/19 06:48:49;;;;;;;;;11.00;10.50;;;;;19.69;57.81;100818.47;5015006;28;45780;-80
2021/09/19 06:51:15;;;;;;;;;11.50;10.75;;;;;19.67;58.03;100806.16;5014214;28;45445;-80
2021/09/19 06:53:41;;;;;;;;;10.25;9.25;;;;;19.72;57.43;100814.97;5018292;28;45919;-79
2021/09/19 06:56:06;;;;;;;;;12.25;11.00;;;;;19.67;57.59;100807.06;5018422;28;47831;-80
2021/09/19 06:58:33;;;;;;;;;10.50;10.00;;;;;19.69;57.57;100821.09;5016570;28;45373;-79
2021/09/19 07:00:58;;;;;;;;;12.00;11.00;;;;;19.59;57.87;100814.00;5002357;28;45260;-78
2021/09/19 07:03:24;;;;;;;;;13.50;11.50;;;;;19.60;57.55;100828.88;5007400;28;45511;-80
2021/09/19 07:05:50;;;;;;;;;13.75;12.50;;;;;19.53;57.27;100827.06;5013365;28;47586;-79
2021/09/19 07:08:15;;;;;;;;;13.50;12.75;;;;;19.63;58.26;100839.41;5014511;28;45705;-85
2021/09/19 07:10:41;;;;;;;;;17.50;14.25;;;;;19.65;57.50;100846.41;5019921;28;45497;-80
2021/09/19 07:13:06;;;;;;;;;18.25;15.50;;;;;19.47;57.34;100812.16;5025885;28;44983;-81
2021/09/19 07:15:32;;;;;;;;;14.00;13.25;;;;;19.65;57.62;100850.81;5018594;28;47781;-84
2021/09/19 07:17:58;;;;;;;;;13.00;12.00;;;;;19.64;57.35;100857.81;5017409;28;45738;-82
2021/09/19 07:20:23;;;;;;;;;10.50;10.00;;;;;19.67;57.14;100859.59;5002295;28;45280;-79
2021/09/19 07:22:49;;;;;;;;;15.25;12.25;;;;;19.68;57.30;100855.19;5001360;28;45339;-82
2021/09/19 07:25:15;;;;;;;;;14.00;11.50;;;;;19.68;57.06;100852.56;5013355;28;46006;-76
2021/09/19 07:27:41;;;;;;;;;13.75;12.00;;;;;19.71;57.32;100861.34;5014025;28;45768;-77
2021/09/19 07:30:09;;;;;;;;;12.25;11.50;;;;;19.71;56.59;100863.13;5019594;28;45470;-78
2021/09/19 07:32:35;;;;;;;;;11.50;11.50;;;;;19.72;56.67;100865.75;5019289;28;45534;-78
2021/09/19 07:35:02;;;;;;;;;11.25;8.25;;;;;19.67;57.23;100856.06;5017921;28;45523;-77
2021/09/19 07:37:29;;;;;;;;;11.25;9.50;;;;;19.72;56.35;100857.00;4999328;28;45760;-78
2021/09/19 07:39:55;;;;;;;;;13.25;12.50;;;;;19.78;56.70;100868.44;5002263;28;45279;-79
2021/09/19 07:42:21;;;;;;;;;17.75;16.75;;;;;19.78;56.37;100878.03;5001207;28;45568;-77
2021/09/19 07:44:47;;;;;;;;;14.25;14.00;;;;;19.74;56.63;100871.03;4998937;28;45484;-78
2021/09/19 07:47:13;;;;;;;;;12.75;12.75;;;;;19.84;56.38;100880.75;4999740;28;45305;-79
2021/09/19 07:49:39;;;;;;;;;16.50;14.00;;;;;19.85;56.67;100881.59;5003344;28;45325;-78
2021/09/19 07:52:06;;;;;;;;;14.50;13.00;;;;;19.84;56.42;100872.84;5019030;28;45552;-78
2021/09/19 07:54:33;;;;;;;;;13.75;13.75;;;;;19.83;55.88;100875.44;5018611;28;45892;-79
2021/09/19 07:56:58;;;;;;;;;15.50;13.25;;;;;19.84;56.44;100891.25;5016920;28;45352;-77
2021/09/19 07:59:24;;;;;;;;;16.75;14.50;;;;;19.85;56.01;100889.47;5018985;28;45404;-77
2021/09/19 08:01:49;;;;;;;;;13.50;12.50;;;;;19.83;55.91;100892.09;5018564;28;45380;-78
2021/09/19 08:04:15;;;;;;;;;12.50;10.75;;;;;19.91;56.33;100908.84;5018664;28;46401;-78
2021/09/19 08:06:41;;;;;;;;;14.25;11.25;;;;;19.94;56.01;100914.13;5018380;28;45497;-76
2021/09/19 08:09:06;;;;;;;;;13.25;12.75;;;;;19.97;55.57;100905.38;5016847;28;45492;-79
2021/09/19 08:11:32;;;;;;;;;12.75;11.50;;;;;19.97;55.72;100921.16;4999144;28;45277;-79
2021/09/19 08:14:05;;;;;;;;;13.75;11.00;;;;;19.91;56.18;100910.59;4998594;28;45246;-78
2021/09/19 08:16:37;;;;;;;;;13.75;12.50;;;;;19.95;56.99;100915.00;4998224;28;45839;-78
2021/09/19 08:19:03;;;;;;;;;18.50;15.75;;;;;19.95;56.65;100909.75;5013163;28;45454;-80
2021/09/19 08:21:29;;;;;;;;;15.25;13.25;;;;;20.01;56.83;100911.53;5013504;28;45541;-80
2021/09/19 08:23:55;;;;;;;;;16.75;14.75;;;;;20.04;56.76;100911.56;4998260;28;45317;-78
2021/09/19 08:26:20;;;;;;;;;18.00;15.00;;;;;20.06;56.82;100918.59;5000753;28;45349;-78
2021/09/19 08:28:46;;;;;;;;;15.50;13.00;;;;;20.08;57.10;100914.22;5000107;28;45451;-78
2021/09/19 08:31:12;;;;;;;;;13.75;13.50;;;;;20.14;57.05;100912.53;4998992;28;45605;-80
2021/09/19 08:33:37;;;;;;;;;17.00;13.00;;;;;20.19;56.89;100921.31;4998544;28;45961;-78
2021/09/19 08:36:03;;;;;;;;;14.25;13.50;;;;;20.24;56.75;100930.13;4997929;28;45348;-79
2021/09/19 08:38:29;;;;;;;;;16.25;14.75;;;;;20.24;56.33;100933.63;4998058;28;45243;-80
2021/09/19 08:40:55;;;;;;;;;14.00;13.50;;;;;20.30;56.60;100935.41;5028796;28;45303;-79
2021/09/19 08:43:21;;;;;;;;;14.25;12.50;;;;;20.33;56.06;100940.69;5010440;28;46020;-79
2021/09/19 08:45:48;;;;;;;;;16.00;13.50;;;;;20.34;55.82;100938.94;4997151;28;45438;-78
2021/09/19 08:48:18;;;;;;;;;17.00;16.50;;;;;20.36;55.63;100945.94;4997619;28;45327;-78
2021/09/19 08:50:48;;;;;;;;;15.00;14.25;;;;;20.25;55.39;100938.00;4997627;28;45395;-78
2021/09/19 08:53:14;;;;;;;;;16.00;14.75;;;;;20.29;56.24;100945.91;4997263;28;45949;-77
2021/09/19 08:55:42;;;;;;;;;18.50;15.75;;;;;20.24;56.41;100954.66;4997817;28;45328;-77
2021/09/19 08:58:08;;;;;;;;;14.75;13.75;;;;;20.20;55.83;100955.47;4997772;28;45356;-77
2021/09/19 09:00:49;;;;;;;;;13.00;12.75;;;;;20.20;56.50;100955.47;5011657;28;45262;-80
2021/09/19 09:03:22;;;;;;;;;16.00;13.50;;;;;20.22;56.04;100958.16;5016715;28;45443;-78
2021/09/19 09:05:54;;;;;;;;;13.50;12.75;;;;;20.19;55.51;100953.72;5016327;28;45927;-82
2021/09/19 09:08:21;;;;;;;;;17.50;15.00;;;;;20.17;56.07;100957.22;5017604;28;45348;-78
2021/09/19 09:10:49;;;;;;;;;12.75;12.50;;;;;20.12;56.38;100959.81;5017151;28;45624;-78
2021/09/19 09:13:18;;;;;;;;;16.50;16.00;;;;;20.09;55.80;100970.28;5021983;28;45613;-79
2021/09/19 09:15:46;;;;;;;;;19.50;14.50;;;;;20.08;56.46;100972.06;5021495;28;45307;-79
2021/09/19 09:18:32;;;;;;;;;14.25;14.25;;;;;20.06;56.04;100955.38;5017110;28;45307;-79
2021/09/19 09:21:06;;;;;;;;;17.25;13.50;;;;;20.12;56.22;100975.56;5032116;28;45399;-79
2021/09/19 09:23:38;;;;;;;;;17.25;15.75;;;;;20.16;56.40;100976.47;5017715;28;46219;-78
2021/09/19 09:26:18;;;;;;;;;20.00;15.50;;;;;20.23;56.18;100975.69;5016863;28;45505;-78
2021/09/19 09:28:47;;;;;;;;;13.75;13.50;;;;;20.28;56.37;100988.84;5017123;28;45328;-78
2021/09/19 09:31:23;;;;;;;;;14.00;13.75;;;;;20.29;56.51;100975.72;4999442;28;45229;-79
2021/09/19 09:34:09;;;;;;;;;16.75;15.25;;;;;20.35;56.24;100975.78;5012266;28;45457;-78
2021/09/19 09:36:46;;;;;;;;;15.50;15.00;;;;;20.42;55.92;100974.03;4997564;28;45727;-79
2021/09/19 09:39:21;;;;;;;;;13.75;12.50;;;;;20.47;56.45;100976.69;4997623;28;45207;-81
2021/09/19 09:41:47;;;;;;;;;19.00;16.00;;;;;20.52;55.64;100962.69;4997484;28;45360;-79
2021/09/19 09:44:42;;;;;;;;;19.00;18.00;;;;;20.63;55.69;100973.31;4997726;28;46186;-79
2021/09/19 09:47:13;;;;;;;;;16.00;15.50;;;;;20.70;56.20;100967.19;4998235;28;45531;-78
2021/09/19 09:49:50;;;;;;;;;18.00;15.75;;;;;20.81;55.46;100972.56;4998570;28;45397;-79
2021/09/19 09:52:30;;;;;;;;;17.75;15.75;;;;;20.86;55.26;100973.44;5011565;28;45407;-80
2021/09/19 09:55:09;;;;;;;;;14.25;13.50;;;;;20.91;54.99;100978.72;4996927;28;45539;-77
2021/09/19 09:57:34;;;;;;;;;20.00;15.25;;;;;20.93;54.71;100977.00;4996730;28;45352;-77
2021/09/19 10:00:13;;;;;;;;;12.00;10.50;;;;;20.95;55.39;100975.25;4996201;28;45289;-77
2021/09/19 10:02:44;;;;;;;;;15.00;13.50;;;;;20.94;54.88;100967.38;4998809;28;45394;-79
2021/09/19 10:05:12;;;;;;;;;16.25;14.25;;;;;21.03;54.70;100977.94;4997218;28;45395;-78
2021/09/19 10:07:40;;;;;;;;;16.75;15.50;;;;;21.04;54.42;100979.69;4997007;28;45453;-77
2021/09/19 10:10:10;;;;;;;;;10.00;9.25;;;;;21.09;54.91;100974.44;4996652;28;45388;-78
2021/09/19 10:12:36;;;;;;;;;15.75;13.25;;;;;21.20;54.69;100988.53;4997120;28;45554;-79
2021/09/19 10:15:02;;;;;;;;;15.00;14.75;;;;;21.23;54.56;100990.28;4996179;28;46245;-79
2021/09/19 10:17:28;;;;;;;;;15.00;13.75;;;;;21.26;54.13;100996.44;4996277;28;45342;-80
2021/09/19 10:19:55;;;;;;;;;13.75;13.75;;;;;21.32;54.06;100985.03;5002602;28;45403;-79
2021/09/19 10:22:28;;;;;;;;;17.50;14.75;;;;;21.41;53.97;100981.56;5016373;28;45776;-80
2021/09/19 10:24:53;;;;;;;;;13.00;12.25;;;;;21.52;54.20;100985.09;5015784;28;46362;-79
2021/09/19 10:27:24;;;;;;;;;16.25;15.25;;;;;21.55;53.10;100974.56;5015976;28;45344;-79
2021/09/19 10:30:24;;;;;;;;;12.25;11.00;;;;;21.67;53.23;100986.91;5015998;28;45326;-79
2021/09/19 10:32:49;;;;;;;;;16.75;14.25;;;;;21.72;53.07;100984.28;5015552;28;45484;-80
2021/09/19 10:35:15;;;;;;;;;13.50;13.50;;;;;21.78;52.37;100984.28;5014804;28;46599;-78
2021/09/19 10:38:04;;;;;;;;;15.75;15.75;;;;;21.84;52.62;100975.50;5015818;28;45271;-79
2021/09/19 10:40:43;;;;;;;;;14.75;14.50;;;;;21.92;52.70;100981.69;5000598;28;45197;-79
2021/09/19 10:43:19;;;;;;;;;17.25;14.75;;;;;22.02;52.45;100983.44;4996842;28;45317;-80
2021/09/19 10:45:50;;;;;;;;;18.00;16.25;;;;;22.08;51.88;100979.94;4996266;28;46187;-79
2021/09/19 10:48:27;;;;;;;;;13.50;12.50;;;;;22.12;51.99;100981.66;4996718;28;45603;-80
2021/09/19 10:51:03;;;;;;;;;14.50;14.00;;;;;22.23;52.08;100985.19;4995148;28;45309;-80
2021/09/19 10:53:29;;;;;;;;;12.00;12.00;;;;;22.28;51.91;100974.63;4996255;28;45467;-80
2021/09/19 10:56:03;;;;;;;;;16.75;15.25;;;;;22.37;51.42;100985.16;4998954;28;46214;-80
2021/09/19 10:58:34;;;;;;;;;13.25;13.25;;;;;22.36;51.22;100980.75;4997861;28;45883;-78
2021/09/19 11:01:26;;;;;;;;;16.00;15.75;;;;;22.46;51.40;100989.59;4996593;28;45443;-77
2021/09/19 11:04:00;;;;;;;;;17.00;14.75;;;;;22.53;51.18;100985.19;5011440;28;45415;-78
2021/09/19 11:06:31;;;;;;;;;15.50;15.50;;;;;22.55;50.83;100983.41;5010909;28;47751;-78
2021/09/19 11:09:00;;;;;;;;;14.00;12.75;;;;;22.55;50.78;100980.78;4995573;28;45247;-77
2021/09/19 11:11:27;;;;;;;;;17.50;16.25;;;;;22.65;50.80;100989.53;5015290;28;45903;-77
2021/09/19 11:14:00;;;;;;;;;14.75;13.50;;;;;22.69;50.24;100978.97;5015627;28;45228;-78
2021/09/19 11:16:30;;;;;;;;;16.25;13.50;;;;;22.70;50.14;100980.72;5015577;28;45312;-78